sensor_id;sensor_type;location;lat;lon;timestamp;P1;durP1;ratioP1;P2;durP2;ratioP2
22070;SDS011;11200;51.488;6.668;2024-02-26T00:01:26;6.43;;;3.78;;
22070;SDS011;11200;51.488;6.668;2024-02-26T00:03:51;5.22;;;3.40;;
22070;SDS011;11200;51.488;6.668;2024-02-26T00:06:19;4.80;;;3.08;;
22070;SDS011;11200;51.488;6.668;2024-02-26T00:08:48;5.35;;;3.33;;
22070;SDS011;11200;51.488;6.668;2024-02-26T00:11:14;5.72;;;3.60;;
22070;SDS011;11200;51.488;6.668;2024-02-26T00:13:40;5.07;;;3.50;;
22070;SDS011;11200;51.488;6.668;2024-02-26T00:16:06;5.70;;;3.05;;
22070;SDS011;11200;51.488;6.668;2024-02-26T00:18:32;4.88;;;3.17;;
22070;SDS011;11200;51.488;6.668;2024-02-26T00:20:58;5.40;;;3.40;;
22070;SDS011;11200;51.488;6.668;2024-02-26T00:23:25;5.07;;;3.30;;
22070;SDS011;11200;51.488;6.668;2024-02-26T00:25:52;4.97;;;2.88;;
22070;SDS011;11200;51.488;6.668;2024-02-26T00:28:18;4.78;;;3.15;;
22070;SDS011;11200;51.488;6.668;2024-02-26T00:30:45;5.78;;;3.40;;
22070;SDS011;11200;51.488;6.668;2024-02-26T00:33:11;4.90;;;3.35;;
22070;SDS011;11200;51.488;6.668;2024-02-26T00:35:37;5.00;;;3.42;;
22070;SDS011;11200;51.488;6.668;2024-02-26T00:38:03;4.95;;;3.53;;
22070;SDS011;11200;51.488;6.668;2024-02-26T00:40:29;6.38;;;3.92;;
22070;SDS011;11200;51.488;6.668;2024-02-26T00:42:55;5.78;;;3.47;;
22070;SDS011;11200;51.488;6.668;2024-02-26T00:45:21;7.20;;;3.90;;
22070;SDS011;11200;51.488;6.668;2024-02-26T00:47:47;6.25;;;3.78;;
22070;SDS011;11200;51.488;6.668;2024-02-26T00:50:14;6.47;;;3.70;;
22070;SDS011;11200;51.488;6.668;2024-02-26T00:52:40;4.80;;;3.30;;
22070;SDS011;11200;51.488;6.668;2024-02-26T00:55:06;6.57;;;3.50;;
22070;SDS011;11200;51.488;6.668;2024-02-26T00:57:33;6.68;;;3.70;;
22070;SDS011;11200;51.488;6.668;2024-02-26T00:59:59;6.35;;;3.50;;
22070;SDS011;11200;51.488;6.668;2024-02-26T01:02:25;5.80;;;3.25;;
22070;SDS011;11200;51.488;6.668;2024-02-26T01:04:51;4.82;;;3.42;;
22070;SDS011;11200;51.488;6.668;2024-02-26T01:07:18;6.03;;;3.17;;
22070;SDS011;11200;51.488;6.668;2024-02-26T01:09:44;4.47;;;3.17;;
22070;SDS011;11200;51.488;6.668;2024-02-26T01:12:10;4.95;;;3.03;;
22070;SDS011;11200;51.488;6.668;2024-02-26T01:14:36;6.10;;;3.30;;
22070;SDS011;11200;51.488;6.668;2024-02-26T01:17:03;5.38;;;3.10;;
22070;SDS011;11200;51.488;6.668;2024-02-26T01:19:29;4.72;;;3.10;;
22070;SDS011;11200;51.488;6.668;2024-02-26T01:21:55;5.22;;;3.10;;
22070;SDS011;11200;51.488;6.668;2024-02-26T01:24:21;5.10;;;3.13;;
22070;SDS011;11200;51.488;6.668;2024-02-26T01:26:47;4.97;;;2.80;;
22070;SDS011;11200;51.488;6.668;2024-02-26T01:29:13;5.38;;;2.95;;
22070;SDS011;11200;51.488;6.668;2024-02-26T01:31:39;4.00;;;2.90;;
22070;SDS011;11200;51.488;6.668;2024-02-26T01:34:05;4.57;;;2.80;;
22070;SDS011;11200;51.488;6.668;2024-02-26T01:36:31;4.57;;;2.80;;
22070;SDS011;11200;51.488;6.668;2024-02-26T01:38:57;3.70;;;2.80;;
22070;SDS011;11200;51.488;6.668;2024-02-26T01:41:23;3.92;;;2.72;;
22070;SDS011;11200;51.488;6.668;2024-02-26T01:43:49;4.97;;;2.97;;
22070;SDS011;11200;51.488;6.668;2024-02-26T01:46:15;5.97;;;3.53;;
22070;SDS011;11200;51.488;6.668;2024-02-26T01:54:53;4.30;;;2.92;;
22070;SDS011;11200;51.488;6.668;2024-02-26T01:57:19;4.15;;;2.70;;
22070;SDS011;11200;51.488;6.668;2024-02-26T01:59:45;4.40;;;2.90;;
22070;SDS011;11200;51.488;6.668;2024-02-26T02:02:11;4.10;;;2.85;;
22070;SDS011;11200;51.488;6.668;2024-02-26T02:04:37;4.65;;;2.88;;
22070;SDS011;11200;51.488;6.668;2024-02-26T02:07:03;5.28;;;3.03;;
22070;SDS011;11200;51.488;6.668;2024-02-26T02:09:29;5.80;;;3.13;;
22070;SDS011;11200;51.488;6.668;2024-02-26T02:11:56;5.00;;;2.88;;
22070;SDS011;11200;51.488;6.668;2024-02-26T02:14:24;5.32;;;3.30;;
22070;SDS011;11200;51.488;6.668;2024-02-26T02:16:51;4.97;;;2.95;;
22070;SDS011;11200;51.488;6.668;2024-02-26T02:19:17;5.90;;;3.33;;
22070;SDS011;11200;51.488;6.668;2024-02-26T02:21:43;5.35;;;3.15;;
22070;SDS011;11200;51.488;6.668;2024-02-26T02:24:09;5.35;;;2.88;;
22070;SDS011;11200;51.488;6.668;2024-02-26T02:26:34;5.18;;;3.10;;
22070;SDS011;11200;51.488;6.668;2024-02-26T02:29:01;5.00;;;2.80;;
22070;SDS011;11200;51.488;6.668;2024-02-26T02:31:28;4.43;;;2.95;;
22070;SDS011;11200;51.488;6.668;2024-02-26T02:33:54;3.55;;;2.60;;
22070;SDS011;11200;51.488;6.668;2024-02-26T02:36:20;4.32;;;2.90;;
22070;SDS011;11200;51.488;6.668;2024-02-26T02:38:49;4.93;;;3.00;;
22070;SDS011;11200;51.488;6.668;2024-02-26T02:41:16;5.18;;;3.13;;
22070;SDS011;11200;51.488;6.668;2024-02-26T02:43:42;4.47;;;2.95;;
22070;SDS011;11200;51.488;6.668;2024-02-26T02:46:08;4.35;;;3.20;;
22070;SDS011;11200;51.488;6.668;2024-02-26T02:48:34;4.90;;;2.70;;
22070;SDS011;11200;51.488;6.668;2024-02-26T02:51:00;5.05;;;3.35;;
22070;SDS011;11200;51.488;6.668;2024-02-26T02:53:26;4.60;;;2.75;;
22070;SDS011;11200;51.488;6.668;2024-02-26T02:55:51;3.85;;;2.88;;
22070;SDS011;11200;51.488;6.668;2024-02-26T02:58:17;4.07;;;2.80;;
22070;SDS011;11200;51.488;6.668;2024-02-26T03:00:43;5.28;;;2.70;;
22070;SDS011;11200;51.488;6.668;2024-02-26T03:03:09;5.00;;;2.70;;
22070;SDS011;11200;51.488;6.668;2024-02-26T03:05:35;3.80;;;2.80;;
22070;SDS011;11200;51.488;6.668;2024-02-26T03:08:01;3.47;;;2.60;;
22070;SDS011;11200;51.488;6.668;2024-02-26T03:10:27;4.13;;;2.50;;
22070;SDS011;11200;51.488;6.668;2024-02-26T03:12:53;4.38;;;2.50;;
22070;SDS011;11200;51.488;6.668;2024-02-26T03:15:21;4.18;;;2.60;;
22070;SDS011;11200;51.488;6.668;2024-02-26T03:17:47;3.50;;;2.33;;
22070;SDS011;11200;51.488;6.668;2024-02-26T03:20:13;3.80;;;2.55;;
22070;SDS011;11200;51.488;6.668;2024-02-26T03:22:39;4.43;;;2.90;;
22070;SDS011;11200;51.488;6.668;2024-02-26T03:25:06;4.15;;;2.80;;
22070;SDS011;11200;51.488;6.668;2024-02-26T03:27:32;3.95;;;2.30;;
22070;SDS011;11200;51.488;6.668;2024-02-26T03:29:58;4.35;;;3.03;;
22070;SDS011;11200;51.488;6.668;2024-02-26T03:32:24;3.30;;;2.50;;
22070;SDS011;11200;51.488;6.668;2024-02-26T03:34:50;3.17;;;2.40;;
22070;SDS011;11200;51.488;6.668;2024-02-26T03:37:19;3.97;;;2.45;;
22070;SDS011;11200;51.488;6.668;2024-02-26T03:39:45;3.22;;;2.53;;
22070;SDS011;11200;51.488;6.668;2024-02-26T03:42:11;3.08;;;2.38;;
22070;SDS011;11200;51.488;6.668;2024-02-26T03:44:37;3.00;;;2.40;;
22070;SDS011;11200;51.488;6.668;2024-02-26T03:47:03;2.55;;;2.10;;
22070;SDS011;11200;51.488;6.668;2024-02-26T03:49:29;3.50;;;2.40;;
22070;SDS011;11200;51.488;6.668;2024-02-26T03:51:55;4.05;;;2.50;;
22070;SDS011;11200;51.488;6.668;2024-02-26T03:54:21;3.65;;;2.50;;
22070;SDS011;11200;51.488;6.668;2024-02-26T03:56:47;3.88;;;2.53;;
22070;SDS011;11200;51.488;6.668;2024-02-26T03:59:13;3.38;;;2.60;;
22070;SDS011;11200;51.488;6.668;2024-02-26T04:01:44;3.50;;;2.28;;
22070;SDS011;11200;51.488;6.668;2024-02-26T04:04:10;4.60;;;2.78;;
22070;SDS011;11200;51.488;6.668;2024-02-26T04:06:36;4.15;;;2.20;;
22070;SDS011;11200;51.488;6.668;2024-02-26T04:09:02;5.53;;;2.78;;
22070;SDS011;11200;51.488;6.668;2024-02-26T04:11:29;2.28;;;1.90;;
22070;SDS011;11200;51.488;6.668;2024-02-26T04:13:56;3.00;;;2.33;;
22070;SDS011;11200;51.488;6.668;2024-02-26T04:16:22;2.92;;;2.40;;
22070;SDS011;11200;51.488;6.668;2024-02-26T04:18:48;3.63;;;2.35;;
22070;SDS011;11200;51.488;6.668;2024-02-26T04:21:14;3.03;;;2.17;;
22070;SDS011;11200;51.488;6.668;2024-02-26T04:23:41;3.30;;;1.98;;
22070;SDS011;11200;51.488;6.668;2024-02-26T04:26:07;2.67;;;2.30;;
22070;SDS011;11200;51.488;6.668;2024-02-26T04:28:34;3.53;;;2.20;;
22070;SDS011;11200;51.488;6.668;2024-02-26T04:31:00;3.03;;;2.42;;
22070;SDS011;11200;51.488;6.668;2024-02-26T04:33:27;4.10;;;2.20;;
22070;SDS011;11200;51.488;6.668;2024-02-26T04:35:53;2.67;;;2.00;;
22070;SDS011;11200;51.488;6.668;2024-02-26T04:38:19;3.08;;;2.08;;
22070;SDS011;11200;51.488;6.668;2024-02-26T04:40:45;2.30;;;1.92;;
22070;SDS011;11200;51.488;6.668;2024-02-26T04:43:11;2.60;;;2.03;;
22070;SDS011;11200;51.488;6.668;2024-02-26T04:45:38;2.20;;;2.00;;
22070;SDS011;11200;51.488;6.668;2024-02-26T04:48:04;3.25;;;2.15;;
22070;SDS011;11200;51.488;6.668;2024-02-26T04:50:30;2.38;;;1.90;;
22070;SDS011;11200;51.488;6.668;2024-02-26T04:52:56;3.05;;;2.17;;
22070;SDS011;11200;51.488;6.668;2024-02-26T04:55:22;2.55;;;2.10;;
22070;SDS011;11200;51.488;6.668;2024-02-26T04:57:48;2.60;;;1.77;;
22070;SDS011;11200;51.488;6.668;2024-02-26T05:00:14;3.45;;;1.98;;
22070;SDS011;11200;51.488;6.668;2024-02-26T05:02:40;3.10;;;2.28;;
22070;SDS011;11200;51.488;6.668;2024-02-26T05:05:07;3.30;;;1.85;;
22070;SDS011;11200;51.488;6.668;2024-02-26T05:07:39;3.13;;;2.03;;
22070;SDS011;11200;51.488;6.668;2024-02-26T05:10:10;2.30;;;1.83;;
22070;SDS011;11200;51.488;6.668;2024-02-26T05:12:36;2.63;;;2.10;;
22070;SDS011;11200;51.488;6.668;2024-02-26T05:15:03;3.72;;;1.90;;
22070;SDS011;11200;51.488;6.668;2024-02-26T05:17:29;2.10;;;1.90;;
22070;SDS011;11200;51.488;6.668;2024-02-26T05:19:55;3.10;;;2.00;;
22070;SDS011;11200;51.488;6.668;2024-02-26T05:22:22;2.58;;;1.70;;
22070;SDS011;11200;51.488;6.668;2024-02-26T05:24:48;2.10;;;1.88;;
22070;SDS011;11200;51.488;6.668;2024-02-26T05:27:15;2.72;;;2.00;;
22070;SDS011;11200;51.488;6.668;2024-02-26T05:29:41;2.58;;;1.90;;
22070;SDS011;11200;51.488;6.668;2024-02-26T05:32:07;1.98;;;1.77;;
22070;SDS011;11200;51.488;6.668;2024-02-26T05:34:33;3.22;;;1.98;;
22070;SDS011;11200;51.488;6.668;2024-02-26T05:36:59;2.25;;;1.90;;
22070;SDS011;11200;51.488;6.668;2024-02-26T05:39:25;2.83;;;1.88;;
22070;SDS011;11200;51.488;6.668;2024-02-26T05:41:51;1.95;;;1.75;;
22070;SDS011;11200;51.488;6.668;2024-02-26T05:44:17;1.95;;;1.70;;
22070;SDS011;11200;51.488;6.668;2024-02-26T05:46:44;2.63;;;1.85;;
22070;SDS011;11200;51.488;6.668;2024-02-26T05:49:10;2.10;;;1.80;;
22070;SDS011;11200;51.488;6.668;2024-02-26T05:51:36;2.08;;;1.70;;
22070;SDS011;11200;51.488;6.668;2024-02-26T05:54:03;1.70;;;1.60;;
22070;SDS011;11200;51.488;6.668;2024-02-26T05:56:29;1.85;;;1.63;;
22070;SDS011;11200;51.488;6.668;2024-02-26T05:58:56;2.30;;;1.77;;
22070;SDS011;11200;51.488;6.668;2024-02-26T06:01:22;2.00;;;1.60;;
22070;SDS011;11200;51.488;6.668;2024-02-26T06:03:49;1.85;;;1.65;;
22070;SDS011;11200;51.488;6.668;2024-02-26T06:06:15;2.05;;;1.70;;
22070;SDS011;11200;51.488;6.668;2024-02-26T06:08:41;2.17;;;1.80;;
22070;SDS011;11200;51.488;6.668;2024-02-26T06:11:07;2.45;;;1.83;;
22070;SDS011;11200;51.488;6.668;2024-02-26T06:13:33;2.17;;;1.60;;
22070;SDS011;11200;51.488;6.668;2024-02-26T06:16:00;2.78;;;1.80;;
22070;SDS011;11200;51.488;6.668;2024-02-26T06:18:26;2.60;;;2.17;;
22070;SDS011;11200;51.488;6.668;2024-02-26T06:20:52;2.25;;;1.80;;
22070;SDS011;11200;51.488;6.668;2024-02-26T06:23:18;2.53;;;1.90;;
22070;SDS011;11200;51.488;6.668;2024-02-26T06:25:44;2.17;;;1.77;;
22070;SDS011;11200;51.488;6.668;2024-02-26T06:28:12;2.70;;;1.92;;
22070;SDS011;11200;51.488;6.668;2024-02-26T06:30:42;2.15;;;1.80;;
22070;SDS011;11200;51.488;6.668;2024-02-26T06:33:08;2.10;;;1.90;;
22070;SDS011;11200;51.488;6.668;2024-02-26T06:35:34;1.90;;;1.70;;
22070;SDS011;11200;51.488;6.668;2024-02-26T06:38:00;2.03;;;1.80;;
22070;SDS011;11200;51.488;6.668;2024-02-26T06:40:27;3.28;;;2.20;;
22070;SDS011;11200;51.488;6.668;2024-02-26T06:42:53;2.60;;;2.10;;
22070;SDS011;11200;51.488;6.668;2024-02-26T06:45:19;2.20;;;1.90;;
22070;SDS011;11200;51.488;6.668;2024-02-26T06:47:45;2.63;;;1.77;;
22070;SDS011;11200;51.488;6.668;2024-02-26T06:50:11;2.33;;;1.83;;
22070;SDS011;11200;51.488;6.668;2024-02-26T06:52:44;2.55;;;2.10;;
22070;SDS011;11200;51.488;6.668;2024-02-26T06:55:11;2.85;;;2.22;;
22070;SDS011;11200;51.488;6.668;2024-02-26T06:57:38;3.40;;;2.67;;
22070;SDS011;11200;51.488;6.668;2024-02-26T07:00:04;3.10;;;2.22;;
22070;SDS011;11200;51.488;6.668;2024-02-26T07:02:30;2.88;;;2.10;;
22070;SDS011;11200;51.488;6.668;2024-02-26T07:04:56;3.28;;;2.10;;
22070;SDS011;11200;51.488;6.668;2024-02-26T07:07:25;2.88;;;2.13;;
22070;SDS011;11200;51.488;6.668;2024-02-26T07:09:51;2.88;;;2.40;;
22070;SDS011;11200;51.488;6.668;2024-02-26T07:12:17;2.95;;;2.30;;
22070;SDS011;11200;51.488;6.668;2024-02-26T07:14:49;2.80;;;2.30;;
22070;SDS011;11200;51.488;6.668;2024-02-26T07:17:15;3.70;;;2.00;;
22070;SDS011;11200;51.488;6.668;2024-02-26T07:19:41;3.15;;;1.90;;
22070;SDS011;11200;51.488;6.668;2024-02-26T07:22:08;2.70;;;2.25;;
22070;SDS011;11200;51.488;6.668;2024-02-26T07:24:34;3.45;;;2.17;;
22070;SDS011;11200;51.488;6.668;2024-02-26T07:27:03;2.83;;;1.98;;
22070;SDS011;11200;51.488;6.668;2024-02-26T07:29:32;2.30;;;2.03;;
22070;SDS011;11200;51.488;6.668;2024-02-26T07:31:58;2.58;;;2.13;;
22070;SDS011;11200;51.488;6.668;2024-02-26T07:34:24;3.20;;;2.05;;
22070;SDS011;11200;51.488;6.668;2024-02-26T07:36:54;2.25;;;2.00;;
22070;SDS011;11200;51.488;6.668;2024-02-26T07:39:20;2.38;;;1.80;;
22070;SDS011;11200;51.488;6.668;2024-02-26T07:41:46;3.00;;;2.20;;
22070;SDS011;11200;51.488;6.668;2024-02-26T07:44:14;2.65;;;2.25;;
22070;SDS011;11200;51.488;6.668;2024-02-26T07:46:43;2.55;;;2.05;;
22070;SDS011;11200;51.488;6.668;2024-02-26T07:49:09;2.40;;;1.90;;
22070;SDS011;11200;51.488;6.668;2024-02-26T07:51:35;3.67;;;2.20;;
22070;SDS011;11200;51.488;6.668;2024-02-26T07:54:01;3.03;;;2.10;;
22070;SDS011;11200;51.488;6.668;2024-02-26T07:56:27;2.50;;;2.00;;
22070;SDS011;11200;51.488;6.668;2024-02-26T07:58:53;3.47;;;2.10;;
22070;SDS011;11200;51.488;6.668;2024-02-26T08:01:19;2.70;;;2.15;;
22070;SDS011;11200;51.488;6.668;2024-02-26T08:03:45;2.50;;;2.08;;
22070;SDS011;11200;51.488;6.668;2024-02-26T08:06:11;2.58;;;2.00;;
22070;SDS011;11200;51.488;6.668;2024-02-26T08:08:37;2.42;;;2.08;;
22070;SDS011;11200;51.488;6.668;2024-02-26T08:11:03;3.03;;;2.20;;
22070;SDS011;11200;51.488;6.668;2024-02-26T08:13:29;2.42;;;2.10;;
22070;SDS011;11200;51.488;6.668;2024-02-26T08:15:56;2.60;;;2.25;;
22070;SDS011;11200;51.488;6.668;2024-02-26T08:18:22;2.20;;;2.00;;
22070;SDS011;11200;51.488;6.668;2024-02-26T08:20:48;2.72;;;1.83;;
22070;SDS011;11200;51.488;6.668;2024-02-26T08:23:14;2.95;;;2.00;;
22070;SDS011;11200;51.488;6.668;2024-02-26T08:25:40;2.47;;;1.92;;
22070;SDS011;11200;51.488;6.668;2024-02-26T08:28:06;3.83;;;2.10;;
22070;SDS011;11200;51.488;6.668;2024-02-26T08:30:32;2.00;;;1.80;;
22070;SDS011;11200;51.488;6.668;2024-02-26T08:32:59;2.35;;;2.15;;
22070;SDS011;11200;51.488;6.668;2024-02-26T08:35:25;2.03;;;1.80;;
22070;SDS011;11200;51.488;6.668;2024-02-26T08:37:51;2.60;;;2.20;;
22070;SDS011;11200;51.488;6.668;2024-02-26T08:40:17;3.22;;;2.30;;
22070;SDS011;11200;51.488;6.668;2024-02-26T08:42:44;2.92;;;2.10;;
22070;SDS011;11200;51.488;6.668;2024-02-26T08:45:10;3.10;;;2.22;;
22070;SDS011;11200;51.488;6.668;2024-02-26T08:47:37;2.47;;;1.92;;
22070;SDS011;11200;51.488;6.668;2024-02-26T08:50:03;2.28;;;2.05;;
22070;SDS011;11200;51.488;6.668;2024-02-26T08:52:29;2.67;;;2.22;;
22070;SDS011;11200;51.488;6.668;2024-02-26T08:54:55;2.53;;;2.00;;
22070;SDS011;11200;51.488;6.668;2024-02-26T08:57:22;2.15;;;1.80;;
22070;SDS011;11200;51.488;6.668;2024-02-26T08:59:48;2.35;;;2.10;;
22070;SDS011;11200;51.488;6.668;2024-02-26T09:02:14;2.63;;;1.88;;
22070;SDS011;11200;51.488;6.668;2024-02-26T09:04:40;2.63;;;2.05;;
22070;SDS011;11200;51.488;6.668;2024-02-26T09:07:06;2.10;;;1.70;;
22070;SDS011;11200;51.488;6.668;2024-02-26T09:09:32;3.30;;;2.10;;
22070;SDS011;11200;51.488;6.668;2024-02-26T09:11:58;2.25;;;1.80;;
22070;SDS011;11200;51.488;6.668;2024-02-26T09:14:24;2.22;;;2.03;;
22070;SDS011;11200;51.488;6.668;2024-02-26T09:16:50;2.92;;;2.22;;
22070;SDS011;11200;51.488;6.668;2024-02-26T09:19:17;2.42;;;2.15;;
22070;SDS011;11200;51.488;6.668;2024-02-26T09:21:43;2.35;;;2.00;;
22070;SDS011;11200;51.488;6.668;2024-02-26T09:24:10;2.45;;;1.90;;
22070;SDS011;11200;51.488;6.668;2024-02-26T09:26:36;2.90;;;1.90;;
22070;SDS011;11200;51.488;6.668;2024-02-26T09:29:02;1.73;;;1.63;;
22070;SDS011;11200;51.488;6.668;2024-02-26T09:31:29;3.17;;;2.00;;
22070;SDS011;11200;51.488;6.668;2024-02-26T09:33:55;3.05;;;1.92;;
22070;SDS011;11200;51.488;6.668;2024-02-26T09:36:21;2.25;;;1.95;;
22070;SDS011;11200;51.488;6.668;2024-02-26T09:38:47;2.10;;;1.90;;
22070;SDS011;11200;51.488;6.668;2024-02-26T09:41:16;2.05;;;1.85;;
22070;SDS011;11200;51.488;6.668;2024-02-26T09:43:43;2.13;;;1.83;;
22070;SDS011;11200;51.488;6.668;2024-02-26T09:46:11;2.15;;;1.90;;
22070;SDS011;11200;51.488;6.668;2024-02-26T09:48:37;2.65;;;2.00;;
22070;SDS011;11200;51.488;6.668;2024-02-26T09:51:03;1.95;;;1.75;;
22070;SDS011;11200;51.488;6.668;2024-02-26T09:53:30;2.10;;;1.90;;
22070;SDS011;11200;51.488;6.668;2024-02-26T09:55:59;2.67;;;2.00;;
22070;SDS011;11200;51.488;6.668;2024-02-26T09:58:28;2.30;;;2.00;;
22070;SDS011;11200;51.488;6.668;2024-02-26T10:00:58;2.17;;;1.98;;
22070;SDS011;11200;51.488;6.668;2024-02-26T10:03:27;2.17;;;1.98;;
22070;SDS011;11200;51.488;6.668;2024-02-26T10:05:54;3.22;;;1.90;;
22070;SDS011;11200;51.488;6.668;2024-02-26T10:08:20;1.85;;;1.75;;
22070;SDS011;11200;51.488;6.668;2024-02-26T10:10:47;3.00;;;2.10;;
22070;SDS011;11200;51.488;6.668;2024-02-26T10:13:13;3.03;;;2.38;;
22070;SDS011;11200;51.488;6.668;2024-02-26T10:15:39;2.38;;;2.05;;
22070;SDS011;11200;51.488;6.668;2024-02-26T10:18:05;3.30;;;2.20;;
22070;SDS011;11200;51.488;6.668;2024-02-26T10:20:31;2.90;;;2.55;;
22070;SDS011;11200;51.488;6.668;2024-02-26T10:22:58;2.50;;;2.30;;
22070;SDS011;11200;51.488;6.668;2024-02-26T10:25:24;2.10;;;1.67;;
22070;SDS011;11200;51.488;6.668;2024-02-26T10:27:50;2.63;;;2.03;;
22070;SDS011;11200;51.488;6.668;2024-02-26T10:30:18;3.10;;;2.17;;
22070;SDS011;11200;51.488;6.668;2024-02-26T10:32:45;2.80;;;2.30;;
22070;SDS011;11200;51.488;6.668;2024-02-26T10:35:15;2.53;;;2.30;;
22070;SDS011;11200;51.488;6.668;2024-02-26T10:37:41;2.42;;;2.20;;
22070;SDS011;11200;51.488;6.668;2024-02-26T10:40:10;2.30;;;2.10;;
22070;SDS011;11200;51.488;6.668;2024-02-26T10:42:37;2.42;;;2.13;;
22070;SDS011;11200;51.488;6.668;2024-02-26T10:45:06;3.13;;;2.20;;
22070;SDS011;11200;51.488;6.668;2024-02-26T10:47:34;2.55;;;2.28;;
22070;SDS011;11200;51.488;6.668;2024-02-26T10:50:01;2.45;;;2.15;;
22070;SDS011;11200;51.488;6.668;2024-02-26T10:52:27;2.47;;;2.10;;
22070;SDS011;11200;51.488;6.668;2024-02-26T10:54:56;3.83;;;2.20;;
22070;SDS011;11200;51.488;6.668;2024-02-26T10:57:24;2.17;;;1.98;;
22070;SDS011;11200;51.488;6.668;2024-02-26T10:59:52;2.28;;;2.08;;
22070;SDS011;11200;51.488;6.668;2024-02-26T11:02:19;2.45;;;2.10;;
22070;SDS011;11200;51.488;6.668;2024-02-26T11:04:46;3.03;;;2.10;;
22070;SDS011;11200;51.488;6.668;2024-02-26T11:07:12;2.25;;;1.98;;
22070;SDS011;11200;51.488;6.668;2024-02-26T11:09:39;2.88;;;2.15;;
22070;SDS011;11200;51.488;6.668;2024-02-26T11:12:10;3.92;;;2.10;;
22070;SDS011;11200;51.488;6.668;2024-02-26T11:14:38;3.05;;;2.25;;
22070;SDS011;11200;51.488;6.668;2024-02-26T11:17:04;2.40;;;1.92;;
22070;SDS011;11200;51.488;6.668;2024-02-26T11:19:31;2.38;;;2.10;;
22070;SDS011;11200;51.488;6.668;2024-02-26T11:22:00;2.17;;;1.98;;
22070;SDS011;11200;51.488;6.668;2024-02-26T11:24:26;2.20;;;1.88;;
22070;SDS011;11200;51.488;6.668;2024-02-26T11:26:55;2.80;;;2.05;;
22070;SDS011;11200;51.488;6.668;2024-02-26T11:29:33;2.40;;;1.90;;
22070;SDS011;11200;51.488;6.668;2024-02-26T11:32:00;2.95;;;2.30;;
22070;SDS011;11200;51.488;6.668;2024-02-26T11:34:26;3.78;;;2.20;;
22070;SDS011;11200;51.488;6.668;2024-02-26T11:36:53;2.20;;;2.00;;
22070;SDS011;11200;51.488;6.668;2024-02-26T11:39:19;2.65;;;2.00;;
22070;SDS011;11200;51.488;6.668;2024-02-26T11:41:45;3.28;;;2.15;;
22070;SDS011;11200;51.488;6.668;2024-02-26T11:44:12;2.90;;;2.10;;
22070;SDS011;11200;51.488;6.668;2024-02-26T11:46:38;2.78;;;2.10;;
22070;SDS011;11200;51.488;6.668;2024-02-26T11:51:51;2.88;;;2.20;;
22070;SDS011;11200;51.488;6.668;2024-02-26T11:57:02;2.85;;;2.30;;
22070;SDS011;11200;51.488;6.668;2024-02-26T11:59:37;3.63;;;2.30;;
22070;SDS011;11200;51.488;6.668;2024-02-26T12:02:03;2.55;;;2.30;;
22070;SDS011;11200;51.488;6.668;2024-02-26T12:04:30;2.85;;;2.55;;
22070;SDS011;11200;51.488;6.668;2024-02-26T12:06:57;3.83;;;2.40;;
22070;SDS011;11200;51.488;6.668;2024-02-26T12:09:33;3.22;;;2.40;;
22070;SDS011;11200;51.488;6.668;2024-02-26T12:12:01;3.00;;;2.30;;
22070;SDS011;11200;51.488;6.668;2024-02-26T12:14:27;3.35;;;2.80;;
22070;SDS011;11200;51.488;6.668;2024-02-26T12:16:53;3.70;;;2.67;;
22070;SDS011;11200;51.488;6.668;2024-02-26T12:19:21;3.90;;;2.78;;
22070;SDS011;11200;51.488;6.668;2024-02-26T12:21:51;3.70;;;2.83;;
22070;SDS011;11200;51.488;6.668;2024-02-26T12:24:18;3.13;;;2.70;;
22070;SDS011;11200;51.488;6.668;2024-02-26T12:26:45;3.17;;;2.75;;
22070;SDS011;11200;51.488;6.668;2024-02-26T12:29:12;3.05;;;2.72;;
22070;SDS011;11200;51.488;6.668;2024-02-26T12:31:38;3.58;;;2.80;;
22070;SDS011;11200;51.488;6.668;2024-02-26T12:34:05;3.58;;;3.00;;
22070;SDS011;11200;51.488;6.668;2024-02-26T12:36:32;4.10;;;2.90;;
22070;SDS011;11200;51.488;6.668;2024-02-26T12:38:59;4.22;;;3.20;;
22070;SDS011;11200;51.488;6.668;2024-02-26T12:41:26;4.70;;;3.30;;
22070;SDS011;11200;51.488;6.668;2024-02-26T12:43:55;3.40;;;3.10;;
22070;SDS011;11200;51.488;6.668;2024-02-26T12:46:21;3.53;;;3.22;;
22070;SDS011;11200;51.488;6.668;2024-02-26T12:48:47;6.15;;;3.67;;
22070;SDS011;11200;51.488;6.668;2024-02-26T12:51:14;5.22;;;3.50;;
22070;SDS011;11200;51.488;6.668;2024-02-26T12:53:40;4.75;;;3.70;;
22070;SDS011;11200;51.488;6.668;2024-02-26T12:56:09;3.80;;;3.22;;
22070;SDS011;11200;51.488;6.668;2024-02-26T12:58:37;4.72;;;3.50;;
22070;SDS011;11200;51.488;6.668;2024-02-26T13:01:04;4.72;;;3.55;;
22070;SDS011;11200;51.488;6.668;2024-02-26T13:03:30;3.75;;;3.38;;
22070;SDS011;11200;51.488;6.668;2024-02-26T13:05:56;3.92;;;3.50;;
22070;SDS011;11200;51.488;6.668;2024-02-26T13:08:22;4.78;;;3.67;;
22070;SDS011;11200;51.488;6.668;2024-02-26T13:10:49;4.25;;;3.85;;
22070;SDS011;11200;51.488;6.668;2024-02-26T13:13:19;4.03;;;3.47;;
22070;SDS011;11200;51.488;6.668;2024-02-26T13:15:45;4.03;;;3.45;;
22070;SDS011;11200;51.488;6.668;2024-02-26T13:18:11;5.07;;;3.45;;
22070;SDS011;11200;51.488;6.668;2024-02-26T13:20:37;5.25;;;3.80;;
22070;SDS011;11200;51.488;6.668;2024-02-26T13:23:07;3.80;;;3.40;;
22070;SDS011;11200;51.488;6.668;2024-02-26T13:25:34;3.90;;;3.50;;
22070;SDS011;11200;51.488;6.668;2024-02-26T13:28:16;4.40;;;3.70;;
22070;SDS011;11200;51.488;6.668;2024-02-26T13:33:21;5.00;;;3.78;;
22070;SDS011;11200;51.488;6.668;2024-02-26T13:35:47;3.53;;;3.20;;
22070;SDS011;11200;51.488;6.668;2024-02-26T13:38:13;4.30;;;3.38;;
22070;SDS011;11200;51.488;6.668;2024-02-26T13:40:39;3.75;;;3.17;;
22070;SDS011;11200;51.488;6.668;2024-02-26T13:43:06;4.38;;;3.03;;
22070;SDS011;11200;51.488;6.668;2024-02-26T13:45:36;4.47;;;3.60;;
22070;SDS011;11200;51.488;6.668;2024-02-26T13:48:03;4.45;;;3.60;;
22070;SDS011;11200;51.488;6.668;2024-02-26T13:50:29;3.80;;;3.08;;
22070;SDS011;11200;51.488;6.668;2024-02-26T13:52:55;3.85;;;3.15;;
22070;SDS011;11200;51.488;6.668;2024-02-26T13:55:22;3.58;;;3.05;;
22070;SDS011;11200;51.488;6.668;2024-02-26T13:57:51;3.78;;;2.97;;
22070;SDS011;11200;51.488;6.668;2024-02-26T14:00:18;3.65;;;2.97;;
22070;SDS011;11200;51.488;6.668;2024-02-26T14:02:45;3.45;;;3.10;;
22070;SDS011;11200;51.488;6.668;2024-02-26T14:05:11;3.17;;;2.75;;
22070;SDS011;11200;51.488;6.668;2024-02-26T14:07:37;2.78;;;2.53;;
22070;SDS011;11200;51.488;6.668;2024-02-26T14:10:03;3.20;;;2.90;;
22070;SDS011;11200;51.488;6.668;2024-02-26T14:12:30;3.50;;;3.20;;
22070;SDS011;11200;51.488;6.668;2024-02-26T14:14:58;3.90;;;3.30;;
22070;SDS011;11200;51.488;6.668;2024-02-26T14:17:26;3.50;;;3.00;;
22070;SDS011;11200;51.488;6.668;2024-02-26T14:19:52;3.17;;;2.78;;
22070;SDS011;11200;51.488;6.668;2024-02-26T14:22:18;3.08;;;2.78;;
22070;SDS011;11200;51.488;6.668;2024-02-26T14:24:46;2.97;;;2.70;;
22070;SDS011;11200;51.488;6.668;2024-02-26T14:27:12;3.17;;;2.60;;
22070;SDS011;11200;51.488;6.668;2024-02-26T14:29:45;3.20;;;2.90;;
22070;SDS011;11200;51.488;6.668;2024-02-26T14:32:11;2.95;;;2.63;;
22070;SDS011;11200;51.488;6.668;2024-02-26T14:34:37;4.05;;;2.72;;
22070;SDS011;11200;51.488;6.668;2024-02-26T14:37:03;3.50;;;2.92;;
22070;SDS011;11200;51.488;6.668;2024-02-26T14:39:29;3.88;;;2.90;;
22070;SDS011;11200;51.488;6.668;2024-02-26T14:41:56;3.80;;;2.70;;
22070;SDS011;11200;51.488;6.668;2024-02-26T14:44:23;3.95;;;2.80;;
22070;SDS011;11200;51.488;6.668;2024-02-26T14:46:49;2.92;;;2.63;;
22070;SDS011;11200;51.488;6.668;2024-02-26T14:49:15;3.22;;;2.88;;
22070;SDS011;11200;51.488;6.668;2024-02-26T14:51:42;3.47;;;3.10;;
22070;SDS011;11200;51.488;6.668;2024-02-26T14:54:09;2.80;;;2.50;;
22070;SDS011;11200;51.488;6.668;2024-02-26T14:56:36;3.10;;;2.65;;
22070;SDS011;11200;51.488;6.668;2024-02-26T14:59:05;3.38;;;2.95;;